CheckWX is a tool to help pilots better visualize weather data.  It is not intended as a substitute for an official pre-flight weather briefing.

16:16:46 UTC

PANN METAR
Nenana Municipal Airport
Nenana, Alaska, USA
Current

24 mins ago

PANN 211553Z AUTO 26004KT 10SM OVC100 M13/M16 A2901 RMK AO2 SLP836 T11331161 TSNO
Observed
Feb-21 @ 15:53 UTC
Wind
  • 260° at 4 KTS
Visibility
10 SM
Flight Rules
VFR
Cloud Levels
  • Overcast at 10,000' AGL
Temperature
-13°C / 9°F
Dewpoint
-16°C / 3°F
Humidity
78%
Altimeter
29.01" Hg
Pressure
982.42 hPa
Previous

1 hour ago

PANN 211453Z AUTO 26003KT 10SM BKN100 M13/M16 A2900 RMK AO2 SLP830 T11281156 51020 TSNO
Observed
Feb-21 @ 14:53 UTC
Wind
  • 260° at 3 KTS
Visibility
10 SM
Flight Rules
VFR
Cloud Levels
  • Broken at 10,000' AGL
Temperature
-13°C / 9°F
Dewpoint
-16°C / 3°F
Humidity
78%
Altimeter
29" Hg
Pressure
982.02 hPa
Previous

2 hours ago

PANN 211353Z AUTO 27003KT 10SM OVC090 M12/M15 A2898 RMK AO2 SLP824 T11171150 TSNO
Observed
Feb-21 @ 13:53 UTC
Wind
  • 270° at 3 KTS
Visibility
10 SM
Flight Rules
VFR
Cloud Levels
  • Overcast at 9,000' AGL
Temperature
-12°C / 10°F
Dewpoint
-15°C / 5°F
Humidity
79%
Altimeter
28.98" Hg
Pressure
981.42 hPa